Time;durP1;ratioP1;P1;durP2;ratioP2;P2;SDS_P1;SDS_P2;PMS_P1;PMS_P2;Temp;Humidity;BMP_temperature;BMP_pressure;BME280_temperature;BME280_humidity;BME280_pressure;Samples;Min_cycle;Max_cycle;Signal;HPM_P1;HPM_P2
2021/06/14 00:00:15;;;;;;;7.37;1.60;;;13.60;99.90;;;;;;4172070;28;20033;-65
2021/06/14 00:02:16;;;;;;;4.10;1.73;;;13.60;99.90;;;;;;4171938;28;20048;-66
2021/06/14 00:04:17;;;;;;;2.73;1.53;;;13.50;99.90;;;;;;4172688;28;20032;-67
2021/06/14 00:06:18;;;;;;;9.77;1.60;;;13.50;99.90;;;;;;4173006;28;20493;-65
2021/06/14 00:08:21;;;;;;;4.50;1.90;;;13.50;99.90;;;;;;4171344;28;20091;-67
2021/06/14 00:10:26;;;;;;;3.57;1.70;;;13.50;99.90;;;;;;4172534;28;20079;-67
2021/06/14 00:12:27;;;;;;;7.87;2.37;;;13.50;99.90;;;;;;4160798;28;20371;-65
2021/06/14 00:14:28;;;;;;;6.87;1.50;;;13.50;99.90;;;;;;4155823;28;20034;-64
2021/06/14 00:16:29;;;;;;;6.47;1.77;;;13.50;99.90;;;;;;4155743;28;20021;-66
2021/06/14 00:18:33;;;;;;;8.30;2.10;;;13.50;99.90;;;;;;4157560;28;20029;-67
2021/06/14 00:20:34;;;;;;;4.97;1.67;;;13.40;99.90;;;;;;4155143;28;20095;-67
2021/06/14 00:22:37;;;;;;;3.00;1.80;;;13.40;99.90;;;;;;4156427;28;20029;-68
2021/06/14 00:24:38;;;;;;;4.57;1.60;;;13.40;99.90;;;;;;4155905;28;20731;-66
2021/06/14 00:26:39;;;;;;;3.50;2.40;;;13.40;99.90;;;;;;4137274;28;20124;-64
2021/06/14 00:28:42;;;;;;;3.73;1.50;;;13.40;99.90;;;;;;4159259;28;20477;-66
2021/06/14 00:30:45;;;;;;;4.20;1.60;;;13.40;99.90;;;;;;4171493;28;20524;-66
2021/06/14 00:32:47;;;;;;;2.47;1.97;;;13.40;99.90;;;;;;4172467;28;20090;-64
2021/06/14 00:34:48;;;;;;;7.43;1.53;;;13.40;99.90;;;;;;4156736;28;20115;-66
2021/06/14 00:36:49;;;;;;;6.97;1.70;;;13.40;99.90;;;;;;4137758;28;20073;-65
2021/06/14 00:38:50;;;;;;;3.10;1.93;;;13.40;99.90;;;;;;4155701;28;20079;-67
2021/06/14 00:40:52;;;;;;;6.53;1.70;;;13.40;99.90;;;;;;4155477;28;20041;-65
2021/06/14 00:42:53;;;;;;;3.47;1.40;;;13.50;99.90;;;;;;4155838;28;20135;-66
2021/06/14 00:44:54;;;;;;;5.50;1.70;;;13.50;99.90;;;;;;4155898;28;20030;-67
2021/06/14 00:46:55;;;;;;;7.83;1.83;;;13.50;99.90;;;;;;4169925;28;20029;-67
2021/06/14 00:48:56;;;;;;;4.70;1.20;;;13.50;99.90;;;;;;4172256;28;20066;-65
2021/06/14 00:51:00;;;;;;;2.27;1.33;;;13.40;99.90;;;;;;4172447;28;20041;-65
2021/06/14 00:53:02;;;;;;;3.43;2.13;;;13.40;99.90;;;;;;4172612;28;21006;-66
2021/06/14 00:55:06;;;;;;;3.23;1.60;;;13.40;99.90;;;;;;4172523;28;20037;-65
2021/06/14 00:57:07;;;;;;;3.53;1.20;;;13.50;99.90;;;;;;4171893;28;20033;-63
2021/06/14 00:59:10;;;;;;;5.37;1.93;;;13.50;99.90;;;;;;4171078;28;20083;-66
2021/06/14 01:01:11;;;;;;;5.13;1.43;;;13.40;99.90;;;;;;4171969;28;20021;-66
2021/06/14 01:03:12;;;;;;;5.93;1.40;;;13.40;99.90;;;;;;4172064;28;20029;-66
2021/06/14 01:05:15;;;;;;;3.57;1.50;;;13.40;99.90;;;;;;4170853;28;20820;-66
2021/06/14 01:07:16;;;;;;;3.33;1.37;;;13.40;99.90;;;;;;4172067;28;20029;-64
2021/06/14 01:09:18;;;;;;;7.47;1.57;;;13.40;99.90;;;;;;4172164;28;20025;-67
2021/06/14 01:11:24;;;;;;;10.77;2.70;;;13.40;99.90;;;;;;4171519;28;20111;-67
2021/06/14 01:13:25;;;;;;;4.07;1.97;;;13.40;99.90;;;;;;4154162;28;20099;-67
2021/06/14 01:15:29;;;;;;;6.63;2.53;;;13.40;99.90;;;;;;4171728;28;20447;-65
2021/06/14 01:17:36;;;;;;;4.00;1.43;;;13.40;99.90;;;;;;4171971;28;20091;-65
2021/06/14 01:20:01;;;;;;;7.97;2.10;;;13.40;99.90;;;;;;4171873;28;20091;-66
2021/06/14 01:22:08;;;;;;;4.13;1.57;;;13.40;99.90;;;;;;4172472;28;20747;-66
2021/06/14 01:24:14;;;;;;;3.63;1.47;;;13.30;99.90;;;;;;4163439;28;20034;-66
2021/06/14 01:26:21;;;;;;;4.47;1.97;;;13.30;99.90;;;;;;4155463;28;20025;-67
2021/06/14 01:28:23;;;;;;;4.63;1.47;;;13.30;99.90;;;;;;4154847;28;20045;-66
2021/06/14 01:30:34;;;;;;;2.70;1.37;;;13.30;99.90;;;;;;4156051;28;20030;-67
2021/06/14 01:32:40;;;;;;;7.33;1.90;;;13.20;99.90;;;;;;4137372;28;20097;-66
2021/06/14 01:34:43;;;;;;;9.33;1.70;;;13.20;99.90;;;;;;4155477;28;20087;-66
2021/06/14 01:36:45;;;;;;;1.90;1.40;;;13.20;99.90;;;;;;4155159;28;20084;-65
2021/06/14 01:38:48;;;;;;;5.93;1.60;;;13.10;99.90;;;;;;4163439;28;20025;-68
2021/06/14 01:40:54;;;;;;;4.53;1.53;;;13.10;99.90;;;;;;4175115;28;20036;-67
2021/06/14 01:42:59;;;;;;;1.90;1.50;;;13.20;99.90;;;;;;4174824;28;20059;-66
2021/06/14 01:45:01;;;;;;;2.67;1.50;;;13.10;99.90;;;;;;4175225;28;20409;-65
2021/06/14 01:47:05;;;;;;;2.33;1.50;;;13.10;99.90;;;;;;4144025;28;20045;-66
2021/06/14 01:49:08;;;;;;;4.77;1.37;;;13.10;99.90;;;;;;4158847;28;20075;-67
2021/06/14 01:51:12;;;;;;;8.27;1.40;;;13.10;99.90;;;;;;4157950;28;20029;-64
2021/06/14 01:53:14;;;;;;;6.47;2.23;;;13.10;99.90;;;;;;4157942;28;20049;-67
2021/06/14 01:55:17;;;;;;;8.33;1.87;;;13.10;99.90;;;;;;4157544;28;20034;-66
2021/06/14 01:57:18;;;;;;;7.57;2.87;;;13.10;99.90;;;;;;4158150;28;20087;-66
2021/06/14 01:59:25;;;;;;;6.90;1.50;;;13.10;99.90;;;;;;4158502;28;20084;-65
2021/06/14 02:01:30;;;;;;;4.00;1.73;;;13.10;99.90;;;;;;4168868;28;20041;-66
2021/06/14 02:03:32;;;;;;;3.93;1.67;;;13.00;99.90;;;;;;4174826;28;20448;-67
2021/06/14 02:05:34;;;;;;;10.83;1.60;;;13.00;99.90;;;;;;4174429;28;20032;-68
2021/06/14 02:07:36;;;;;;;5.70;1.23;;;13.00;99.90;;;;;;4172964;28;20037;-66
2021/06/14 02:09:38;;;;;;;6.70;1.80;;;13.00;99.90;;;;;;4174336;28;20033;-65
2021/06/14 02:11:42;;;;;;;2.27;1.57;;;13.00;99.90;;;;;;4174346;28;20083;-67
2021/06/14 02:13:44;;;;;;;5.70;1.50;;;13.00;99.90;;;;;;4174328;28;20071;-63
2021/06/14 02:15:45;;;;;;;7.00;1.60;;;13.10;99.90;;;;;;4173030;28;20033;-67
2021/06/14 02:17:46;;;;;;;5.30;1.40;;;13.00;99.90;;;;;;4174662;28;20037;-66
2021/06/14 02:19:49;;;;;;;3.40;1.43;;;13.00;99.90;;;;;;4173255;28;20053;-66
2021/06/14 02:21:50;;;;;;;4.10;1.50;;;13.00;99.90;;;;;;4173998;28;20078;-67
2021/06/14 02:23:51;;;;;;;3.20;1.40;;;13.00;99.90;;;;;;4173913;28;20052;-67
2021/06/14 02:25:52;;;;;;;6.73;1.60;;;13.00;99.90;;;;;;4174123;28;20029;-65
2021/06/14 02:27:54;;;;;;;2.73;1.60;;;13.00;99.90;;;;;;4171654;28;20045;-66
2021/06/14 02:29:55;;;;;;;5.70;1.60;;;13.00;99.90;;;;;;4174339;28;20873;-67
2021/06/14 02:31:56;;;;;;;5.10;1.67;;;13.00;99.90;;;;;;4173963;28;20033;-65
2021/06/14 02:33:57;;;;;;;2.77;1.27;;;13.00;99.90;;;;;;4173568;28;20053;-67
2021/06/14 02:35:58;;;;;;;6.73;1.20;;;13.00;99.90;;;;;;4155350;28;20041;-66
2021/06/14 02:38:03;;;;;;;3.00;1.40;;;12.90;99.90;;;;;;4174108;28;20036;-67
2021/06/14 02:40:07;;;;;;;3.00;1.37;;;13.00;99.90;;;;;;4164596;28;20037;-65
2021/06/14 02:42:09;;;;;;;5.67;1.37;;;12.90;99.90;;;;;;4157708;28;20068;-66
2021/06/14 02:44:11;;;;;;;2.40;1.20;;;12.90;99.90;;;;;;4157283;28;20088;-66
2021/06/14 02:46:13;;;;;;;3.73;1.40;;;12.90;99.90;;;;;;4157856;28;20060;-67
2021/06/14 02:48:16;;;;;;;3.57;1.00;;;12.80;99.90;;;;;;4156977;28;20545;-66
2021/06/14 02:50:19;;;;;;;2.40;1.53;;;12.90;99.90;;;;;;4156657;28;20022;-67
2021/06/14 02:52:21;;;;;;;4.07;1.50;;;12.80;99.90;;;;;;4157518;28;20432;-67
2021/06/14 02:54:27;;;;;;;3.67;1.10;;;12.80;99.90;;;;;;4157357;28;20033;-64
2021/06/14 02:56:31;;;;;;;3.80;1.27;;;12.90;99.90;;;;;;4166653;28;20078;-65
2021/06/14 02:58:39;;;;;;;5.30;1.37;;;12.90;99.90;;;;;;4173878;28;20102;-66
2021/06/14 03:00:40;;;;;;;3.17;1.33;;;12.80;99.90;;;;;;4173852;28;20048;-65
2021/06/14 03:02:42;;;;;;;1.70;1.00;;;12.80;99.90;;;;;;4160737;28;20071;-67
2021/06/14 03:04:43;;;;;;;5.23;1.83;;;12.80;99.90;;;;;;4157484;28;20040;-65
2021/06/14 03:06:47;;;;;;;3.53;1.60;;;12.80;99.90;;;;;;4157111;28;20560;-63
2021/06/14 03:08:49;;;;;;;2.53;1.27;;;12.80;99.90;;;;;;4157193;28;20041;-65
2021/06/14 03:10:50;;;;;;;2.93;1.30;;;12.80;99.90;;;;;;4156485;28;20041;-66
2021/06/14 03:12:56;;;;;;;2.97;1.50;;;12.70;99.90;;;;;;4156515;28;20623;-67
2021/06/14 03:14:57;;;;;;;2.10;1.10;;;12.70;99.90;;;;;;4157039;28;20033;-67
2021/06/14 03:16:59;;;;;;;1.73;1.10;;;12.60;99.90;;;;;;4156903;28;20033;-67
2021/06/14 03:19:02;;;;;;;4.40;1.27;;;12.60;99.90;;;;;;4156742;28;20547;-67
2021/06/14 03:21:03;;;;;;;3.37;1.53;;;12.50;99.90;;;;;;4156654;28;20024;-65
2021/06/14 03:23:05;;;;;;;3.80;2.40;;;12.40;99.90;;;;;;4156876;28;20033;-67
2021/06/14 03:25:06;;;;;;;1.47;1.00;;;12.40;99.90;;;;;;4155845;28;20082;-64
2021/06/14 03:27:10;;;;;;;2.10;1.10;;;12.30;99.90;;;;;;4157780;28;20038;-67
2021/06/14 03:29:18;;;;;;;3.83;1.10;;;12.30;99.90;;;;;;4155866;28;20045;-69
2021/06/14 03:31:20;;;;;;;1.27;1.10;;;12.20;99.90;;;;;;4155610;28;20045;-66
2021/06/14 03:33:21;;;;;;;2.13;1.10;;;12.20;99.90;;;;;;4155774;28;20045;-67
2021/06/14 03:35:23;;;;;;;2.00;1.10;;;12.20;99.90;;;;;;4156617;28;20120;-67
2021/06/14 03:37:26;;;;;;;3.37;0.93;;;12.10;99.90;;;;;;4141765;28;20493;-68
2021/06/14 03:39:27;;;;;;;4.27;1.20;;;12.10;99.90;;;;;;4172175;28;20045;-67
2021/06/14 03:41:28;;;;;;;4.40;1.50;;;12.00;99.90;;;;;;4173124;28;20025;-64
2021/06/14 03:43:30;;;;;;;3.33;1.43;;;11.90;99.90;;;;;;4172954;28;20029;-65
2021/06/14 03:45:32;;;;;;;3.67;0.87;;;11.90;99.90;;;;;;4172713;28;20036;-66
2021/06/14 03:47:34;;;;;;;7.27;1.30;;;11.90;99.90;;;;;;4172366;28;20025;-66
2021/06/14 03:49:35;;;;;;;1.87;1.00;;;11.80;99.90;;;;;;4171683;28;20477;-67
2021/06/14 03:51:37;;;;;;;2.60;1.30;;;11.80;99.90;;;;;;4171595;28;20452;-66
2021/06/14 03:53:39;;;;;;;1.57;0.93;;;11.80;99.90;;;;;;4172525;28;20033;-66
2021/06/14 03:55:40;;;;;;;4.73;1.83;;;11.80;99.90;;;;;;4171308;28;20098;-67
2021/06/14 03:57:42;;;;;;;5.33;1.53;;;11.80;99.90;;;;;;4172051;28;20370;-67
2021/06/14 03:59:44;;;;;;;3.43;0.97;;;11.80;99.90;;;;;;4171073;28;20041;-68
2021/06/14 04:01:45;;;;;;;2.23;1.20;;;11.80;99.90;;;;;;4166243;28;20040;-67
2021/06/14 04:03:58;;;;;;;2.17;1.13;;;11.80;99.90;;;;;;4171944;28;20029;-67
2021/06/14 04:06:01;;;;;;;4.13;1.60;;;11.80;99.90;;;;;;4171915;28;20021;-66
2021/06/14 04:08:02;;;;;;;7.60;2.50;;;11.80;99.90;;;;;;4167400;28;20771;-66
2021/06/14 04:10:08;;;;;;;1.50;1.13;;;11.90;99.90;;;;;;4159386;28;20470;-65
2021/06/14 04:12:10;;;;;;;9.47;1.67;;;11.90;99.90;;;;;;4154010;28;20060;-66
2021/06/14 04:14:12;;;;;;;1.93;1.10;;;11.80;99.90;;;;;;4168136;28;20107;-67
2021/06/14 04:16:13;;;;;;;1.67;1.27;;;11.90;99.90;;;;;;4172339;28;20037;-63
2021/06/14 04:18:14;;;;;;;4.60;1.50;;;11.80;99.90;;;;;;4171722;28;20096;-66
2021/06/14 04:20:17;;;;;;;3.83;1.37;;;11.80;99.90;;;;;;4155557;28;20497;-65
2021/06/14 04:22:18;;;;;;;4.33;1.60;;;11.80;99.90;;;;;;4155342;28;20067;-68
2021/06/14 04:24:19;;;;;;;3.90;1.53;;;11.80;99.90;;;;;;4155630;28;20049;-66
2021/06/14 04:26:20;;;;;;;4.03;1.57;;;11.80;99.90;;;;;;4168144;28;20107;-67
2021/06/14 04:28:21;;;;;;;3.07;1.27;;;11.80;99.90;;;;;;4171348;28;20182;-65
2021/06/14 04:30:23;;;;;;;2.07;1.70;;;11.80;99.90;;;;;;4170836;28;20033;-67
2021/06/14 04:32:24;;;;;;;6.37;1.87;;;11.80;99.90;;;;;;4170807;28;20560;-65
2021/06/14 04:34:27;;;;;;;3.70;1.40;;;11.80;99.90;;;;;;4171928;28;20082;-64
2021/06/14 04:36:28;;;;;;;2.43;1.53;;;11.80;99.90;;;;;;4171674;28;20134;-67
2021/06/14 04:38:30;;;;;;;4.93;2.00;;;11.80;99.90;;;;;;4171338;28;20033;-67
2021/06/14 04:40:31;;;;;;;4.60;1.37;;;11.80;99.90;;;;;;4171155;28;20053;-67
2021/06/14 04:42:33;;;;;;;2.27;1.17;;;11.80;99.90;;;;;;4164141;28;20030;-66
2021/06/14 04:44:34;;;;;;;2.87;1.50;;;11.80;99.90;;;;;;4154611;28;20041;-68
2021/06/14 04:46:35;;;;;;;3.93;1.77;;;11.80;99.90;;;;;;4155023;28;20478;-67
2021/06/14 04:48:36;;;;;;;4.57;1.43;;;11.80;99.90;;;;;;4155112;28;20034;-65
2021/06/14 04:50:37;;;;;;;3.70;1.57;;;11.80;99.90;;;;;;4154817;28;20037;-68
2021/06/14 04:52:39;;;;;;;2.23;1.30;;;11.80;99.90;;;;;;4159431;28;20033;-68
2021/06/14 04:54:40;;;;;;;3.43;1.87;;;11.80;99.90;;;;;;4170726;28;20523;-73
2021/06/14 04:56:41;;;;;;;4.93;1.90;;;11.80;99.90;;;;;;4172070;28;20021;-65
2021/06/14 04:58:43;;;;;;;4.17;1.47;;;11.80;99.90;;;;;;4171246;28;20098;-66
2021/06/14 05:00:44;;;;;;;2.73;1.70;;;11.90;99.90;;;;;;4170339;28;20098;-63
2021/06/14 05:02:46;;;;;;;5.63;1.57;;;11.90;99.90;;;;;;4168777;28;20420;-65
2021/06/14 05:04:47;;;;;;;4.03;1.77;;;11.90;99.90;;;;;;4166636;28;20098;-63
2021/06/14 05:06:48;;;;;;;4.83;2.07;;;11.90;99.90;;;;;;4171239;28;20095;-61
2021/06/14 05:08:49;;;;;;;2.47;1.63;;;11.90;99.90;;;;;;4169595;28;20029;-62
2021/06/14 05:10:51;;;;;;;5.40;2.17;;;11.80;99.90;;;;;;4170567;28;20099;-62
2021/06/14 05:12:52;;;;;;;4.57;2.47;;;11.80;99.90;;;;;;4172152;28;20033;-62
2021/06/14 05:14:53;;;;;;;1.70;1.60;;;11.90;99.90;;;;;;4174028;28;20044;-61
2021/06/14 05:16:54;;;;;;;3.00;1.73;;;11.90;99.90;;;;;;4174511;28;20045;-62
2021/06/14 05:18:55;;;;;;;2.10;1.90;;;11.90;99.90;;;;;;4156095;28;20037;-64
2021/06/14 05:20:56;;;;;;;2.83;1.30;;;11.90;99.90;;;;;;4174608;28;20067;-64
2021/06/14 05:22:58;;;;;;;2.97;2.20;;;11.90;99.90;;;;;;4175367;28;20044;-62
2021/06/14 05:24:59;;;;;;;3.27;1.77;;;11.90;99.90;;;;;;4174701;28;20102;-62
2021/06/14 05:27:00;;;;;;;2.13;1.53;;;11.80;99.90;;;;;;4174660;28;20063;-63
2021/06/14 05:29:02;;;;;;;6.97;1.67;;;11.80;99.90;;;;;;4172432;28;20045;-63
2021/06/14 05:31:04;;;;;;;2.60;2.13;;;11.80;99.90;;;;;;4173437;28;20099;-63
2021/06/14 05:33:05;;;;;;;6.27;2.60;;;11.80;99.90;;;;;;4173293;28;20021;-64
2021/06/14 05:35:08;;;;;;;4.90;2.83;;;11.80;99.90;;;;;;4175003;28;20091;-63
2021/06/14 05:37:09;;;;;;;5.30;2.20;;;11.80;99.90;;;;;;4174334;28;20111;-64
2021/06/14 05:39:11;;;;;;;4.30;2.83;;;11.80;99.90;;;;;;4162305;28;20052;-65
2021/06/14 05:41:12;;;;;;;3.20;1.87;;;11.80;99.90;;;;;;4169333;28;20131;-65
2021/06/14 05:43:13;;;;;;;2.50;1.70;;;11.80;99.90;;;;;;4169702;28;20428;-63
2021/06/14 05:45:15;;;;;;;2.63;1.90;;;11.80;99.90;;;;;;4171014;28;20025;-64
2021/06/14 05:47:16;;;;;;;5.40;1.57;;;11.80;99.90;;;;;;4169498;28;20037;-64
2021/06/14 05:49:17;;;;;;;2.60;1.57;;;11.80;99.90;;;;;;4169355;28;20086;-61
2021/06/14 05:51:18;;;;;;;3.17;1.40;;;11.80;99.90;;;;;;4174295;28;20103;-62
2021/06/14 05:53:21;;;;;;;6.23;2.20;;;11.80;99.90;;;;;;4174150;28;20028;-64
2021/06/14 05:55:23;;;;;;;3.07;1.33;;;11.80;99.90;;;;;;4174714;28;20071;-62
2021/06/14 05:57:24;;;;;;;1.43;1.30;;;11.80;99.90;;;;;;4172531;28;20033;-63
2021/06/14 05:59:25;;;;;;;3.80;1.53;;;11.70;99.90;;;;;;4169523;28;20424;-64
2021/06/14 06:01:28;;;;;;;4.03;2.07;;;11.70;99.90;;;;;;4165829;28;20502;-63
2021/06/14 06:03:29;;;;;;;4.67;1.43;;;11.70;99.90;;;;;;4157783;28;20037;-64
2021/06/14 06:05:31;;;;;;;1.50;1.40;;;11.70;99.90;;;;;;4158146;28;20049;-64
2021/06/14 06:07:32;;;;;;;3.10;1.27;;;11.70;99.90;;;;;;4162275;28;20041;-61
2021/06/14 06:09:33;;;;;;;4.33;1.53;;;11.70;99.90;;;;;;4162480;28;20033;-64
2021/06/14 06:11:35;;;;;;;3.13;1.70;;;11.70;99.90;;;;;;4163072;28;20897;-64
2021/06/14 06:13:36;;;;;;;4.43;1.97;;;11.70;99.90;;;;;;4174938;28;20083;-63
2021/06/14 06:15:38;;;;;;;3.30;1.90;;;11.70;99.90;;;;;;4173766;28;20049;-65
2021/06/14 06:17:39;;;;;;;5.57;1.27;;;11.70;99.90;;;;;;4174291;28;20028;-63
2021/06/14 06:19:40;;;;;;;2.77;1.90;;;11.70;99.90;;;;;;4172694;28;20563;-64
2021/06/14 06:21:42;;;;;;;2.97;1.60;;;11.70;99.90;;;;;;4171154;28;20075;-63
2021/06/14 06:23:43;;;;;;;2.40;1.33;;;11.70;99.90;;;;;;4161456;28;20091;-63
2021/06/14 06:25:44;;;;;;;1.33;1.07;;;11.70;99.90;;;;;;4160266;28;20079;-64
2021/06/14 06:27:47;;;;;;;2.23;1.10;;;11.70;99.90;;;;;;4161930;28;20166;-66
2021/06/14 06:29:48;;;;;;;3.77;1.30;;;11.70;99.90;;;;;;4162027;28;20486;-68
2021/06/14 06:31:49;;;;;;;1.70;1.27;;;11.70;99.90;;;;;;4163899;28;20033;-65
2021/06/14 06:33:51;;;;;;;3.90;1.10;;;11.80;99.90;;;;;;4162289;28;20025;-64
2021/06/14 06:35:52;;;;;;;2.70;1.57;;;11.80;99.90;;;;;;4157388;28;20057;-65
2021/06/14 06:37:53;;;;;;;7.20;2.07;;;11.80;99.90;;;;;;4159870;28;20099;-63
2021/06/14 06:39:54;;;;;;;1.30;1.20;;;11.80;99.90;;;;;;4159832;28;20951;-67
2021/06/14 06:41:58;;;;;;;1.10;1.00;;;11.90;99.90;;;;;;4160250;28;20029;-64
2021/06/14 06:43:59;;;;;;;1.10;1.00;;;11.90;99.90;;;;;;4160412;28;20021;-66
2021/06/14 06:46:05;;;;;;;2.33;1.20;;;12.00;99.90;;;;;;4163817;28;20050;-66
2021/06/14 06:48:08;;;;;;;2.90;1.33;;;12.00;99.90;;;;;;4162292;28;20444;-67
2021/06/14 06:50:09;;;;;;;2.33;1.27;;;12.10;99.90;;;;;;4173958;28;20041;-65
2021/06/14 06:52:11;;;;;;;2.07;1.23;;;12.20;99.90;;;;;;4167015;28;20067;-66
2021/06/14 06:54:13;;;;;;;3.83;1.50;;;12.20;99.90;;;;;;4166786;28;20092;-63
2021/06/14 06:56:14;;;;;;;2.40;1.50;;;12.30;99.90;;;;;;4168340;28;20033;-64
2021/06/14 06:58:15;;;;;;;4.50;1.43;;;12.30;99.90;;;;;;4172676;28;20500;-62
2021/06/14 07:00:19;;;;;;;2.53;1.47;;;12.40;99.90;;;;;;4170269;28;20094;-66
2021/06/14 07:02:20;;;;;;;1.50;1.40;;;12.40;99.90;;;;;;4172866;28;20110;-65
2021/06/14 07:06:32;;;;;;;7.47;2.50;;;12.50;99.90;;;;;;4946069;23;21232;-52
2021/06/14 07:08:34;;;;;;;1.70;1.17;;;12.60;99.90;;;;;;4157535;28;20512;-58
2021/06/14 07:10:35;;;;;;;2.00;1.53;;;12.60;99.90;;;;;;4156724;28;20087;-58
2021/06/14 07:12:37;;;;;;;2.77;2.00;;;12.70;99.90;;;;;;4159086;28;20021;-59
2021/06/14 07:14:38;;;;;;;3.50;2.20;;;12.70;99.90;;;;;;4156834;28;20489;-63
2021/06/14 07:16:40;;;;;;;5.27;2.43;;;12.70;99.90;;;;;;4156752;28;20041;-58
2021/06/14 07:18:41;;;;;;;3.17;1.57;;;12.70;99.90;;;;;;4157331;28;20025;-60
2021/06/14 07:20:42;;;;;;;4.10;2.77;;;12.70;99.90;;;;;;4157486;28;20111;-58
2021/06/14 07:22:43;;;;;;;3.13;1.77;;;12.80;99.90;;;;;;4137950;28;20068;-65
2021/06/14 07:24:45;;;;;;;2.80;1.27;;;12.80;99.90;;;;;;4158366;28;20033;-64
2021/06/14 07:26:46;;;;;;;1.40;1.23;;;12.80;99.90;;;;;;4155761;28;20087;-62
2021/06/14 07:28:47;;;;;;;2.93;1.03;;;12.90;99.90;;;;;;4151801;28;20103;-60
2021/06/14 07:30:48;;;;;;;1.43;1.17;;;12.90;99.90;;;;;;4153103;28;20079;-58
2021/06/14 07:32:49;;;;;;;1.63;1.30;;;13.00;99.90;;;;;;4147604;28;20034;-57
2021/06/14 07:34:52;;;;;;;6.87;1.20;;;13.10;99.90;;;;;;4148234;28;20111;-59
2021/06/14 07:36:56;;;;;;;2.43;1.60;;;13.10;99.90;;;;;;4145550;28;20076;-60
2021/06/14 07:38:57;;;;;;;3.63;1.70;;;13.20;99.90;;;;;;4156539;28;20881;-59
2021/06/14 07:40:59;;;;;;;3.00;1.40;;;13.30;99.90;;;;;;4144931;28;20084;-59
2021/06/14 07:43:00;;;;;;;3.60;1.17;;;13.40;99.90;;;;;;4157212;28;20447;-59
2021/06/14 07:45:02;;;;;;;3.10;1.30;;;13.50;99.90;;;;;;4157140;28;20029;-57
2021/06/14 07:47:04;;;;;;;1.47;1.20;;;13.60;99.90;;;;;;4156672;28;20033;-56
2021/06/14 07:49:05;;;;;;;0.80;0.80;;;13.60;99.90;;;;;;4157196;28;20075;-54
2021/06/14 07:51:07;;;;;;;1.50;1.20;;;13.70;99.90;;;;;;4155941;28;20091;-60
2021/06/14 07:53:09;;;;;;;1.87;1.20;;;13.80;99.90;;;;;;4139762;28;20100;-53
2021/06/14 07:55:12;;;;;;;1.63;0.80;;;13.90;99.90;;;;;;4141754;28;20080;-59
2021/06/14 07:57:13;;;;;;;1.83;1.00;;;13.90;99.90;;;;;;4140937;28;20042;-56
2021/06/14 07:59:15;;;;;;;3.80;1.03;;;13.90;99.90;;;;;;4142220;28;20026;-54
2021/06/14 08:01:17;;;;;;;2.30;1.53;;;14.00;99.90;;;;;;4140135;28;20042;-56
2021/06/14 08:03:22;;;;;;;0.93;0.70;;;14.10;99.90;;;;;;4141861;28;20030;-56
2021/06/14 08:05:24;;;;;;;2.50;0.90;;;14.10;99.90;;;;;;4140875;28;20056;-56
2021/06/14 08:07:25;;;;;;;1.77;0.90;;;14.10;99.90;;;;;;4141244;28;20155;-59
2021/06/14 08:09:28;;;;;;;1.77;0.77;;;14.10;99.90;;;;;;4150469;28;20443;-59
2021/06/14 08:11:29;;;;;;;1.77;1.27;;;14.10;99.90;;;;;;4157082;28;20095;-56
2021/06/14 08:13:31;;;;;;;3.20;0.97;;;14.10;99.90;;;;;;4148703;28;20047;-52
2021/06/14 08:15:33;;;;;;;2.50;1.23;;;14.10;99.90;;;;;;4153217;28;20063;-54
2021/06/14 08:17:35;;;;;;;1.20;1.10;;;14.10;99.90;;;;;;4156735;28;20033;-57
2021/06/14 08:19:48;;;;;;;4.67;0.97;;;14.20;99.90;;;;;;4156036;28;20083;-54
2021/06/14 08:26:21;;;;;;;1.50;1.15;;;14.30;99.90;;;;;;4156206;28;20097;-56
2021/06/14 08:28:22;;;;;;;1.20;0.93;;;14.50;99.90;;;;;;4154989;28;20079;-57
2021/06/14 08:30:25;;;;;;;2.57;0.83;;;14.60;99.90;;;;;;4156918;28;20033;-57
2021/06/14 08:32:27;;;;;;;1.80;1.00;;;14.60;99.90;;;;;;4155071;28;20547;-57
2021/06/14 08:34:28;;;;;;;2.50;0.80;;;14.60;99.90;;;;;;4146584;28;20083;-56
2021/06/14 08:36:30;;;;;;;1.20;0.63;;;14.80;99.90;;;;;;4148101;28;20044;-59
2021/06/14 08:38:32;;;;;;;2.33;0.93;;;14.90;99.90;;;;;;4139126;28;20050;-56
2021/06/14 08:40:36;;;;;;;1.77;0.93;;;14.90;99.90;;;;;;4155522;28;20046;-56
2021/06/14 08:42:38;;;;;;;1.83;1.40;;;14.90;99.90;;;;;;4157575;28;20025;-59
2021/06/14 08:44:40;;;;;;;1.53;0.90;;;15.00;99.90;;;;;;4151473;28;20042;-58
2021/06/14 08:46:42;;;;;;;2.40;1.00;;;15.20;99.90;;;;;;4150698;28;20068;-55
2021/06/14 08:48:44;;;;;;;1.67;1.30;;;15.20;99.90;;;;;;4154673;28;20083;-59
2021/06/14 08:50:45;;;;;;;2.10;1.00;;;15.30;99.90;;;;;;4157097;28;20060;-55
2021/06/14 08:52:47;;;;;;;3.43;1.47;;;15.40;99.90;;;;;;4138320;28;20072;-57
2021/06/14 08:54:49;;;;;;;3.47;1.20;;;15.50;99.90;;;;;;4156708;28;20026;-57
2021/06/14 08:56:50;;;;;;;4.23;1.50;;;15.60;99.90;;;;;;4156879;28;20060;-60
2021/06/14 08:58:53;;;;;;;2.17;0.87;;;15.50;99.90;;;;;;4155259;28;20083;-58
2021/06/14 09:00:54;;;;;;;3.27;0.90;;;15.50;99.90;;;;;;4156165;28;20041;-57
2021/06/14 09:02:56;;;;;;;1.63;1.10;;;15.50;99.90;;;;;;4156188;28;20026;-55
2021/06/14 09:04:57;;;;;;;1.50;1.00;;;15.60;99.90;;;;;;4156840;28;20037;-55
2021/06/14 09:07:00;;;;;;;1.87;1.23;;;15.70;99.90;;;;;;4153615;28;20140;-56
2021/06/14 09:09:07;;;;;;;3.23;1.47;;;15.80;99.90;;;;;;4157096;28;20091;-59
2021/06/14 09:11:10;;;;;;;1.93;1.07;;;15.90;99.90;;;;;;4154933;28;20092;-53
2021/06/14 09:13:23;;;;;;;2.50;1.10;;;15.80;99.90;;;;;;4142029;28;20084;-56
2021/06/14 09:15:26;;;;;;;4.00;1.33;;;15.90;99.90;;;;;;4148593;28;20045;-60
2021/06/14 09:17:27;;;;;;;2.93;1.63;;;15.80;99.90;;;;;;4156115;28;20382;-63
2021/06/14 09:19:31;;;;;;;2.03;1.03;;;15.80;99.90;;;;;;4155097;28;20068;-59
2021/06/14 09:21:33;;;;;;;4.63;1.20;;;15.90;99.90;;;;;;4149777;28;20436;-57
2021/06/14 09:23:52;;;;;;;2.93;0.97;;;15.90;99.90;;;;;;4147541;28;20610;-58
2021/06/14 09:25:53;;;;;;;2.47;0.97;;;15.90;99.90;;;;;;4155189;28;20042;-60
2021/06/14 09:27:58;;;;;;;3.57;1.10;;;16.00;99.90;;;;;;4155231;28;20543;-58
2021/06/14 09:30:25;;;;;;;3.43;1.00;;;16.00;99.90;;;;;;4141627;28;20029;-58
2021/06/14 09:32:26;;;;;;;5.03;1.60;;;16.00;99.90;;;;;;4138748;28;20469;-58
2021/06/14 09:34:36;;;;;;;4.83;1.20;;;16.00;99.90;;;;;;4148784;28;20571;-57
2021/06/14 09:36:38;;;;;;;5.43;1.80;;;16.00;99.90;;;;;;4155987;28;20083;-58
2021/06/14 09:38:39;;;;;;;1.73;0.87;;;16.00;99.90;;;;;;4156810;28;20279;-57
2021/06/14 09:40:50;;;;;;;2.47;0.80;;;16.00;99.90;;;;;;4155840;28;20485;-61
2021/06/14 09:42:51;;;;;;;2.20;1.60;;;16.10;99.90;;;;;;4155642;28;20045;-55
2021/06/14 09:45:02;;;;;;;4.57;1.77;;;16.20;99.90;;;;;;4142997;28;20034;-59
2021/06/14 09:47:10;;;;;;;;;;;16.20;99.90;;;;;;4153208;28;20038;-52
2021/06/14 09:49:18;;;;;;;1.57;1.37;;;16.30;99.90;;;;;;4156059;28;19905;-53
2021/06/14 09:51:20;;;;;;;5.13;0.93;;;16.40;99.90;;;;;;4123443;28;20081;-54
2021/06/14 09:53:26;;;;;;;3.83;1.30;;;16.50;99.90;;;;;;4139395;28;20049;-57
2021/06/14 09:55:28;;;;;;;4.18;0.95;;;16.60;99.90;;;;;;4140034;28;20100;-58
2021/06/14 09:57:30;;;;;;;1.37;0.77;;;16.50;99.90;;;;;;4140200;28;20038;-56
2021/06/14 09:59:42;;;;;;;2.55;1.30;;;16.50;99.90;;;;;;4150896;28;20025;-55
2021/06/14 10:01:43;;;;;;;2.40;0.63;;;16.60;99.90;;;;;;4157654;28;20455;-57
2021/06/14 10:03:46;;;;;;;1.33;0.90;;;16.80;99.90;;;;;;4158607;28;20037;-57
2021/06/14 10:05:51;;;;;;;2.28;1.30;;;16.70;99.90;;;;;;4158274;28;20084;-58
2021/06/14 10:07:56;;;;;;;1.20;0.55;;;16.60;99.90;;;;;;4156878;28;20049;-58
2021/06/14 10:09:57;;;;;;;4.40;1.10;;;16.50;99.90;;;;;;4159046;28;20042;-54
2021/06/14 10:11:58;;;;;;;4.68;1.23;;;16.60;99.90;;;;;;4157598;28;20444;-54
2021/06/14 10:14:11;;;;;;;1.63;0.65;;;16.50;99.90;;;;;;4159387;28;20037;-57
2021/06/14 10:16:21;;;;;;;1.65;0.90;;;16.50;99.90;;;;;;4156926;28;20563;-55
2021/06/14 10:18:29;;;;;;;2.83;1.23;;;16.50;99.90;;;;;;4159200;28;20026;-55
2021/06/14 10:20:32;;;;;;;5.97;1.70;;;16.50;99.90;;;;;;4157906;28;20043;-54
2021/06/14 10:22:33;;;;;;;4.68;1.95;;;16.50;99.90;;;;;;4159243;28;20034;-54
2021/06/14 10:24:34;;;;;;;8.25;2.70;;;16.60;99.90;;;;;;4156337;28;20033;-59
2021/06/14 10:26:38;;;;;;;3.10;1.73;;;16.70;99.90;;;;;;4159112;28;20025;-57
2021/06/14 10:28:40;;;;;;;1.98;1.20;;;16.70;99.90;;;;;;4158118;28;20543;-59
2021/06/14 10:30:42;;;;;;;6.88;1.55;;;16.90;99.90;;;;;;4158806;28;20430;-59
2021/06/14 10:32:44;;;;;;;2.60;1.38;;;16.90;99.90;;;;;;4157904;28;20029;-59
2021/06/14 10:34:48;;;;;;;2.45;1.23;;;17.00;99.90;;;;;;4158250;28;20045;-60
2021/06/14 10:36:52;;;;;;;2.15;0.80;;;17.00;99.90;;;;;;4147571;28;20060;-59
2021/06/14 10:38:55;;;;;;;1.80;0.75;;;17.10;99.90;;;;;;4158976;28;20033;-56
2021/06/14 10:40:58;;;;;;;2.67;1.30;;;17.10;99.90;;;;;;4159224;28;20030;-56
2021/06/14 10:43:00;;;;;;;1.85;0.82;;;17.20;99.90;;;;;;4158358;28;20042;-60
2021/06/14 10:45:02;;;;;;;3.05;1.05;;;17.20;99.90;;;;;;4158399;28;20087;-58